If you wish to contribute or participate in the discussions about articles you are invited to join SKYbrary as a registered user

 Actions

Tartu

From SKYbrary Wiki

EETU
Airport
ICAO: EETU
Summary
Name Tartu
Region Europe
Territory Estonia EE.gif
Location Reola, Ülenurme Parish
Serving
Coordinates 58° 18' 25.01" N, 26° 41' 14.00" E
Runways
Designator Length Width Surface ROPS
8/26 1379 m4,524.278 ft
35 m114.829 ft
ASP /


METAR
Observation EETU 231150Z VRB05KT CAVOK 20/00 Q1029
Station Tartu/Ulenurme
Date/Time 23 April 2019 11:50:00
Wind direction °
Wind speed 05 kts
Lowest cloud amount clouds and visibility OK
Temperature 20°C
Dew point 0°C
Humidity 26%
QNH 1029 hPa
Weather condition n/a

Tartu Airport (IATA: TAY, ICAO: EETU) is an airport in Reola, Ülenurme Parish, about 8 km4.32 nm
8,000 m
26,246.719 ft
south of Tartu, the second largest city in Estonia. It is also called Ülenurme Airport due to its proximity to the village of Ülenurme.